Mugla, Turkey
Current Conditions -  °F | °C
As of 1:20 AM on Sunday 26 Oct 2014 (Local Time) from LTFE Reporting Station
Scattered Clouds Scattered Clouds  
Wind Chill: 15°   Ceiling: Unl
Heat Index: 15°   Visibility: 6mi
Dew Point: 13°   Wind: 6mph
Humidity: 88%   Direction: 80°E
Pressure: 29.91"   Gusts: NA
Location:  37.22°N, 28.36°E
Report Text: LTFE 252220Z 08005KT 9999 SCT030 15/13 Q1013 NOSIG
Loading
Personal Weather Stations






























Interactive Weather Map
Tropical Storm Tracking
New forecast layout! Learn more

10-Day Weather Forecast

Advertisements
Track Severe Weather on mobile